• Join FlightAware (Why Join?)
  • Login
  • US Flag 
09:07AM EST


 

Airport Tracker/Info


-or-


 

Live Flight TrackerFlight Track Log ✈ N93XP ✈ 08-05-2013 ✈ KPWK - KCEV

Flight Track Log - Related Links

Times and Time Zones

All times are in EDT time to prevent confusion due to time zone crossing. See the N93XP flight status page for this flight to view local times or setup timezone preferences in your user account.

Time Position Orientation Groundspeed Altitude Reporting Facility
EDT Latitude Longitude Course Direction KTS MPH feet Rate Location/Type
08:07AM 42.1953 -87.8719 35° Northeast 188 216 3,800  Level Chicago Center
08:08AM 42.2094 -87.7575 80° East 261 300 4,200 1,020 Climbing Chicago Center
08:09AM 42.1806 -87.6750 115° Southeast 281 323 6,000 1,740 Climbing Chicago Center
08:10AM 42.1164 -87.6164 146° Southeast 281 323 7,900 1,980 Climbing Chicago Center
08:10AM 42.0667 -87.5833 154° Southeast 291 335 9,300 2,040 Climbing Chicago TRACON
08:11AM 41.9936 -87.3415 102° East  Level FlightAware Approximate
08:13AM 41.9914 -87.3519 114° Southeast 251 289 14,400  Level Indianapolis Center
08:14AM 41.9778 -87.2367 99° East 315 362 16,400 2,100 Climbing Chicago Center
08:15AM 41.9578 -87.0856 100° East 337 388 18,700 1,200 Climbing Chicago Center
08:16AM 41.9419 -86.9508 99° East 363 418 19,000 120 Climbing Chicago Center
08:17AM 41.9211 -86.7961 100° East 411 473 19,000  Level Chicago Center
08:18AM 41.9006 -86.6383 100° East 422 486 19,000  Level Chicago Center
08:19AM 41.8797 -86.4842 100° East 422 486 19,000  Level Chicago Center
08:20AM 41.8594 -86.3311 100° East 418 481 19,000  Level Chicago Center
08:21AM 41.8392 -86.1786 100° East 417 480 19,000  Level Chicago Center
08:22AM 41.8139 -85.9981 101° East 411 473 19,000  Level Chicago Center
08:23AM 41.7936 -85.8464 100° East 415 478 19,000  Level Chicago Center
08:24AM 41.7717 -85.6969 101° East 410 472 19,000  Level Chicago Center
08:25AM 41.7106 -85.5672 122° Southeast 416 479 19,000  Level Chicago Center
08:26AM 41.6128 -85.4911 150° Southeast 424 488 19,000  Level Chicago Center
08:27AM 41.4764 -85.4611 171° South 419 482 19,000  Level Chicago Center
08:28AM 41.3633 -85.4386 172° South 420 483 19,000  Level Chicago Center
08:29AM 41.2475 -85.4161 172° South 422 486 19,000  Level Chicago Center
08:30AM 41.1319 -85.3944 172° South 420 483 19,000  Level Chicago Center
08:31AM 41.0144 -85.3747 173° South 421 484 19,000  Level Chicago Center
08:33AM 40.8772 -85.3444 171° South 423 487 19,000  Level Chicago Center
08:34AM 40.7603 -85.3228 172° South 424 488 19,000  Level Chicago Center
08:35AM 40.6567 -85.3039 172° South 424 488 19,000 -660 Level Chicago Center
08:36AM 40.5211 -85.2822 173° South 415 478 17,700 -1,740 Descending Chicago Center
08:37AM 40.4114 -85.2611 172° South 405 466 15,500 -2,040 Descending Chicago Center
08:38AM 40.3236 -85.2447 172° South 394 453 13,800 -1,980 Descending Indianapolis Center
08:39AM 40.2172 -85.2289 174° South 386 444 11,700 -2,160 Descending Indianapolis Center
08:40AM 40.1036 -85.2083 172° South 326 375 9,400 -1,980 Descending Indianapolis Center
08:41AM 40.0228 -85.1964 174° South 280 322 7,700 -1,740 Descending Indianapolis Center
08:42AM 39.9475 -85.1828 172° South 275 316 5,900 -1,800 Descending Indianapolis Center
08:43AM 39.8717 -85.1714 173° South 258 297 4,100 -1,380 Descending Indianapolis Center
08:44AM 39.7903 -85.1556 171° South 266 306 3,100 -960 Descending Indianapolis Center